Time;durP1;ratioP1;P1;durP2;ratioP2;P2;SDS_P1;SDS_P2;PMS_P1;PMS_P2;Temp;Humidity;BMP_temperature;BMP_pressure;BME280_temperature;BME280_humidity;BME280_pressure;Samples;Min_cycle;Max_cycle;Signal;HPM_P1;HPM_P2
2021/07/05 00:01:37;;;;;;;10.07;6.72;;;14.90;73.10;;;;;;4940028;28;95970;-52
2021/07/05 00:04:07;;;;;;;10.98;6.95;;;14.90;73.20;;;;;;4945797;28;95817;-50
2021/07/05 00:06:37;;;;;;;8.52;6.75;;;15.00;73.10;;;;;;4946360;28;95676;-49
2021/07/05 00:09:09;;;;;;;8.27;6.88;;;15.00;72.90;;;;;;4957915;28;95277;-49
2021/07/05 00:11:40;;;;;;;8.67;6.40;;;15.00;72.60;;;;;;4951920;28;96068;-52
2021/07/05 00:14:14;;;;;;;9.88;6.80;;;15.10;72.40;;;;;;4949072;28;96103;-53
2021/07/05 00:16:45;;;;;;;7.63;6.47;;;15.10;72.20;;;;;;4944105;28;95767;-52
2021/07/05 00:19:16;;;;;;;9.65;6.50;;;15.10;72.10;;;;;;4947288;28;95761;-52
2021/07/05 00:21:47;;;;;;;7.23;5.97;;;15.20;72.10;;;;;;4958407;28;95931;-51
2021/07/05 00:24:19;;;;;;;8.90;6.50;;;15.20;72.00;;;;;;4957911;28;95738;-52
2021/07/05 00:26:50;;;;;;;8.40;5.97;;;15.20;72.40;;;;;;4957498;28;95669;-52
2021/07/05 00:29:23;;;;;;;6.70;5.75;;;15.20;71.90;;;;;;4948545;28;95499;-53
2021/07/05 00:31:55;;;;;;;7.22;5.93;;;15.20;71.70;;;;;;4949573;28;98006;-50
2021/07/05 00:34:28;;;;;;;7.60;6.65;;;15.20;71.50;;;;;;4945951;28;95961;-49
2021/07/05 00:37:00;;;;;;;7.15;5.68;;;15.30;71.50;;;;;;4957307;28;95189;-54
2021/07/05 00:39:32;;;;;;;6.43;5.55;;;15.30;71.60;;;;;;4956503;28;98440;-57
2021/07/05 00:42:05;;;;;;;6.60;5.15;;;15.30;71.40;;;;;;4949057;28;95853;-53
2021/07/05 00:44:36;;;;;;;8.07;6.47;;;15.30;71.40;;;;;;4949790;28;95943;-51
2021/07/05 00:47:06;;;;;;;8.45;6.13;;;15.30;71.50;;;;;;4958661;28;98099;-54
2021/07/05 00:49:38;;;;;;;7.10;5.97;;;15.20;71.70;;;;;;4961316;28;96127;-51
2021/07/05 00:52:09;;;;;;;6.03;5.03;;;15.20;71.80;;;;;;4952629;28;96821;-50
2021/07/05 00:54:40;;;;;;;8.38;5.03;;;15.20;71.70;;;;;;4952348;28;95684;-49
2021/07/05 00:57:25;;;;;;;6.68;5.60;;;15.20;71.80;;;;;;4954110;28;96056;-50
2021/07/05 00:59:58;;;;;;;9.23;5.65;;;15.20;71.70;;;;;;4950167;28;98300;-49
2021/07/05 01:02:29;;;;;;;13.02;6.88;;;15.20;71.60;;;;;;4951650;28;97355;-50
2021/07/05 01:05:01;;;;;;;11.68;6.28;;;15.20;71.70;;;;;;4955595;28;96551;-47
2021/07/05 01:07:32;;;;;;;10.73;6.30;;;15.20;72.40;;;;;;4961965;28;95830;-50
2021/07/05 01:10:05;;;;;;;11.02;6.97;;;15.20;71.60;;;;;;4950198;28;95805;-51
2021/07/05 01:12:35;;;;;;;10.95;7.15;;;15.20;71.80;;;;;;4953071;28;97997;-53
2021/07/05 01:15:13;;;;;;;9.38;6.32;;;15.30;71.70;;;;;;4955675;28;95892;-49
2021/07/05 01:17:45;;;;;;;7.63;6.30;;;15.40;71.60;;;;;;4936196;28;95472;-48
2021/07/05 01:20:22;;;;;;;12.35;6.72;;;15.40;71.40;;;;;;4935849;28;95932;-49
2021/07/05 01:22:53;;;;;;;10.57;5.63;;;15.40;71.40;;;;;;4929230;28;98468;-49
2021/07/05 01:25:26;;;;;;;9.45;5.85;;;15.40;71.50;;;;;;4929421;28;95923;-52
2021/07/05 01:28:00;;;;;;;9.23;6.72;;;15.40;71.60;;;;;;4934358;28;95636;-53
2021/07/05 01:30:31;;;;;;;11.88;7.47;;;15.30;71.50;;;;;;4930091;28;95800;-51
2021/07/05 01:33:03;;;;;;;;;;;15.40;71.60;;;;;;4929610;28;95904;-51
2021/07/05 01:35:35;;;;;;;17.63;11.65;;;15.40;71.50;;;;;;4943666;28;95575;-52
2021/07/05 01:38:23;;;;;;;18.23;12.93;;;15.40;71.40;;;;;;4933458;28;95276;-52
2021/07/05 01:41:01;;;;;;;16.23;12.68;;;15.50;71.50;;;;;;4927614;28;98685;-54
2021/07/05 01:43:33;;;;;;;14.73;11.98;;;15.50;71.30;;;;;;4927060;28;95896;-51
2021/07/05 01:46:05;;;;;;;16.90;11.60;;;15.50;72.00;;;;;;4933322;28;98062;-52
2021/07/05 01:48:37;;;;;;;16.05;12.20;;;15.50;71.50;;;;;;4951332;28;95441;-51
2021/07/05 01:51:08;;;;;;;13.82;9.82;;;15.50;71.50;;;;;;4949093;28;95473;-53
2021/07/05 01:53:40;;;;;;;14.43;10.73;;;15.60;71.40;;;;;;4957575;28;98683;-51
2021/07/05 01:56:13;;;;;;;14.30;10.95;;;15.60;71.40;;;;;;4949188;28;96400;-52
2021/07/05 01:58:44;;;;;;;12.38;10.18;;;15.60;71.40;;;;;;4945031;28;100898;-55
2021/07/05 02:01:14;;;;;;;14.57;9.68;;;15.60;71.20;;;;;;4948237;28;96357;-52
2021/07/05 02:03:48;;;;;;;10.57;8.18;;;15.60;71.10;;;;;;4950075;28;96289;-54
2021/07/05 02:06:18;;;;;;;12.20;9.70;;;15.70;71.10;;;;;;4958912;28;96221;-51
2021/07/05 02:08:49;;;;;;;12.30;10.23;;;15.60;71.10;;;;;;4954925;28;100086;-51
2021/07/05 02:11:20;;;;;;;;;;;15.60;71.10;;;;;;4951526;28;95338;-49
2021/07/05 02:13:53;;;;;;;11.75;8.93;;;15.70;71.10;;;;;;4950890;28;96540;-50
2021/07/05 02:16:25;;;;;;;15.25;8.93;;;15.70;71.00;;;;;;4972994;28;97804;-54
2021/07/05 02:18:58;;;;;;;11.75;8.43;;;15.60;71.10;;;;;;4953688;28;95824;-53
2021/07/05 02:21:29;;;;;;;12.75;8.15;;;15.70;71.20;;;;;;4951871;28;95338;-53
2021/07/05 02:23:59;;;;;;;11.18;8.88;;;15.70;71.20;;;;;;4951454;28;99093;-54
2021/07/05 02:26:31;;;;;;;9.32;8.23;;;15.70;71.20;;;;;;4955445;28;95702;-55
2021/07/05 02:29:02;;;;;;;9.93;6.75;;;15.70;71.20;;;;;;4946495;28;97924;-52
2021/07/05 02:31:34;;;;;;;7.72;6.70;;;15.70;71.10;;;;;;4941769;28;95390;-55
2021/07/05 02:34:06;;;;;;;9.73;7.28;;;15.70;71.00;;;;;;4951094;28;97155;-55
2021/07/05 02:36:37;;;;;;;;;;;15.70;71.00;;;;;;4951898;28;95518;-51
2021/07/05 02:39:12;;;;;;;7.75;6.50;;;15.80;71.00;;;;;;4947973;28;96258;-52
2021/07/05 02:41:43;;;;;;;8.70;7.30;;;15.80;70.90;;;;;;4954247;28;95599;-54
2021/07/05 02:44:13;;;;;;;10.60;7.03;;;15.80;71.00;;;;;;4948502;28;96878;-51
2021/07/05 02:46:43;;;;;;;6.47;5.55;;;15.80;71.10;;;;;;4942698;28;98925;-52
2021/07/05 02:49:15;;;;;;;11.20;6.80;;;15.70;71.00;;;;;;4944980;28;95378;-55
2021/07/05 02:51:45;;;;;;;9.40;7.28;;;15.70;71.10;;;;;;4950735;28;96191;-49
2021/07/05 02:54:19;;;;;;;9.18;8.20;;;15.80;71.20;;;;;;4951844;28;95918;-51
2021/07/05 02:56:50;;;;;;;9.60;8.35;;;15.70;71.10;;;;;;4956255;28;95622;-56
2021/07/05 02:59:21;;;;;;;11.23;9.15;;;15.70;71.20;;;;;;4949697;28;95761;-49
2021/07/05 03:01:51;;;;;;;12.90;10.38;;;15.60;71.30;;;;;;4951911;28;96049;-52
2021/07/05 03:04:23;;;;;;;13.00;11.17;;;15.70;71.40;;;;;;4944836;28;96485;-51
2021/07/05 03:06:53;;;;;;;14.30;11.43;;;15.60;71.40;;;;;;4948018;28;95398;-52
2021/07/05 03:09:24;;;;;;;12.35;11.07;;;15.60;71.40;;;;;;4956497;28;96652;-51
2021/07/05 03:11:55;;;;;;;12.93;11.30;;;15.60;71.40;;;;;;4959352;28;95398;-50
2021/07/05 03:14:26;;;;;;;14.98;11.52;;;15.60;71.40;;;;;;4954461;28;96004;-50
2021/07/05 03:16:57;;;;;;;13.00;11.15;;;15.60;71.50;;;;;;4952509;28;95704;-51
2021/07/05 03:19:30;;;;;;;14.18;10.20;;;15.60;71.50;;;;;;4961275;28;95907;-50
2021/07/05 03:22:00;;;;;;;;;;;15.60;71.60;;;;;;4956429;28;95602;-53
2021/07/05 03:24:31;;;;;;;11.63;9.60;;;15.70;71.70;;;;;;4963215;28;95766;-51
2021/07/05 03:27:02;;;;;;;10.98;8.27;;;15.60;71.80;;;;;;4962172;28;95927;-54
2021/07/05 03:29:33;;;;;;;10.48;9.32;;;15.70;71.60;;;;;;4963298;28;95782;-54
2021/07/05 03:32:06;;;;;;;;;;;15.80;71.50;;;;;;4953828;28;96234;-54
2021/07/05 03:34:38;;;;;;;9.80;8.20;;;15.90;71.50;;;;;;4966481;28;95763;-53
2021/07/05 03:37:09;;;;;;;;;;;15.90;71.50;;;;;;4950089;28;95986;-57
2021/07/05 03:39:41;;;;;;;9.37;7.57;;;15.90;71.50;;;;;;4947192;28;95747;-53
2021/07/05 03:42:12;;;;;;;8.15;7.30;;;16.00;71.50;;;;;;4948204;28;95749;-52
2021/07/05 03:44:44;;;;;;;8.57;7.00;;;16.00;71.40;;;;;;4946492;28;95844;-52
2021/07/05 03:47:14;;;;;;;8.50;6.78;;;16.10;71.20;;;;;;4976937;28;98101;-55
2021/07/05 03:49:46;;;;;;;7.80;6.88;;;16.10;71.20;;;;;;4958593;28;95614;-58
2021/07/05 03:52:17;;;;;;;8.35;6.53;;;16.10;71.20;;;;;;4949702;28;95621;-51
2021/07/05 03:54:47;;;;;;;7.10;6.40;;;16.10;71.40;;;;;;4948897;28;96056;-57
2021/07/05 03:57:25;;;;;;;7.57;6.78;;;16.10;71.40;;;;;;4951477;28;95907;-51
2021/07/05 03:59:59;;;;;;;7.28;6.47;;;16.10;71.50;;;;;;4949876;28;95360;-57
2021/07/05 04:02:31;;;;;;;6.70;6.00;;;16.00;71.50;;;;;;4949120;28;95961;-57
2021/07/05 04:05:01;;;;;;;6.70;5.93;;;16.10;71.90;;;;;;4951369;28;95790;-56
2021/07/05 04:07:31;;;;;;;7.18;5.40;;;16.10;71.80;;;;;;4955756;28;96541;-57
2021/07/05 04:10:05;;;;;;;6.93;4.85;;;16.20;72.10;;;;;;4966166;28;95683;-56
2021/07/05 04:12:36;;;;;;;6.13;5.25;;;16.20;71.90;;;;;;4952115;28;96200;-57
2021/07/05 04:15:08;;;;;;;5.68;5.07;;;16.20;72.00;;;;;;4957852;28;95911;-57
2021/07/05 04:17:39;;;;;;;9.40;6.70;;;16.20;72.10;;;;;;4945043;28;96694;-57
2021/07/05 04:20:15;;;;;;;7.25;5.90;;;16.30;72.20;;;;;;4968856;28;95315;-57
2021/07/05 04:22:45;;;;;;;8.60;6.82;;;16.30;72.20;;;;;;4966389;28;96298;-57
2021/07/05 04:25:17;;;;;;;;;;;16.30;72.30;;;;;;4954554;28;96539;-57
2021/07/05 04:27:50;;;;;;;6.78;6.05;;;16.30;72.40;;;;;;4958505;28;96083;-58
2021/07/05 04:30:24;;;;;;;7.85;6.47;;;16.30;72.50;;;;;;4948183;28;95461;-54
2021/07/05 04:32:58;;;;;;;10.15;6.15;;;16.30;73.30;;;;;;4966658;28;95764;-58
2021/07/05 04:35:32;;;;;;;8.90;6.57;;;16.40;73.80;;;;;;4956546;28;95895;-55
2021/07/05 04:38:03;;;;;;;5.68;5.07;;;16.40;74.00;;;;;;4958068;28;95831;-58
2021/07/05 04:40:38;;;;;;;6.72;5.25;;;16.50;74.20;;;;;;4948422;28;96078;-56
2021/07/05 04:43:10;;;;;;;7.07;5.55;;;16.50;74.00;;;;;;4948069;28;95578;-51
2021/07/05 04:45:43;;;;;;;6.43;5.32;;;16.50;73.80;;;;;;4941999;28;95858;-53
2021/07/05 04:48:14;;;;;;;6.22;4.82;;;16.60;73.90;;;;;;4952331;28;95426;-54
2021/07/05 04:50:45;;;;;;;5.60;5.05;;;16.60;73.40;;;;;;4948235;28;96159;-50
2021/07/05 04:53:15;;;;;;;;;;;16.60;73.80;;;;;;4950331;28;95302;-50
2021/07/05 04:55:46;;;;;;;9.38;5.25;;;16.70;72.70;;;;;;4961262;28;97173;-53
2021/07/05 04:58:17;;;;;;;5.07;4.28;;;16.70;72.60;;;;;;4959971;28;95478;-60
2021/07/05 05:00:50;;;;;;;6.68;4.65;;;16.70;72.60;;;;;;4945328;28;96014;-53
2021/07/05 05:03:20;;;;;;;4.90;4.43;;;16.80;72.60;;;;;;4950945;28;95579;-51
2021/07/05 05:05:50;;;;;;;5.95;4.30;;;16.80;72.50;;;;;;4960591;28;96745;-51
2021/07/05 05:08:20;;;;;;;4.32;3.70;;;16.80;72.40;;;;;;4955864;28;96089;-50
2021/07/05 05:10:51;;;;;;;5.40;3.50;;;16.80;72.30;;;;;;4951438;28;96196;-55
2021/07/05 05:13:22;;;;;;;;;;;16.80;72.80;;;;;;4959758;28;96051;-53
2021/07/05 05:15:54;;;;;;;4.78;3.55;;;16.80;72.90;;;;;;4945033;28;98808;-57
2021/07/05 05:18:25;;;;;;;4.88;3.70;;;16.80;73.10;;;;;;4947795;28;95270;-51
2021/07/05 05:20:56;;;;;;;8.35;3.67;;;16.80;73.00;;;;;;4953564;28;95887;-61
2021/07/05 05:23:27;;;;;;;4.27;3.27;;;16.80;72.90;;;;;;4959448;28;95506;-59
2021/07/05 05:25:58;;;;;;;4.13;3.58;;;16.80;72.90;;;;;;4962047;28;95904;-50
2021/07/05 05:28:31;;;;;;;5.05;3.80;;;16.90;73.10;;;;;;4954007;28;97861;-50
2021/07/05 05:31:03;;;;;;;3.92;3.10;;;16.90;73.40;;;;;;4952657;28;95366;-59
2021/07/05 05:33:34;;;;;;;4.20;3.28;;;16.90;73.20;;;;;;4949149;28;95946;-48
2021/07/05 05:36:08;;;;;;;3.20;2.80;;;17.00;73.00;;;;;;4945181;28;95932;-53
2021/07/05 05:38:45;;;;;;;4.65;2.97;;;17.00;73.10;;;;;;4959533;28;96040;-59
2021/07/05 05:41:17;;;;;;;5.43;2.90;;;17.00;73.10;;;;;;4954493;28;97400;-59
2021/07/05 05:43:49;;;;;;;5.85;3.58;;;17.00;72.90;;;;;;4956543;28;98219;-50
2021/07/05 05:46:19;;;;;;;4.30;3.63;;;17.10;73.00;;;;;;4955928;28;99951;-57
2021/07/05 05:48:51;;;;;;;4.43;3.15;;;17.10;72.90;;;;;;4948093;28;96141;-54
2021/07/05 05:51:26;;;;;;;4.63;3.35;;;17.10;72.90;;;;;;4945340;28;95942;-54
2021/07/05 05:54:02;;;;;;;3.30;3.00;;;17.10;72.80;;;;;;4962200;28;95630;-52
2021/07/05 05:56:33;;;;;;;2.92;2.58;;;17.10;72.80;;;;;;4945736;28;95887;-54
2021/07/05 05:59:08;;;;;;;2.83;2.53;;;17.10;72.70;;;;;;4957316;28;95861;-53
2021/07/05 06:01:49;;;;;;;3.53;3.22;;;17.10;72.70;;;;;;4951021;28;96536;-60
2021/07/05 06:04:20;;;;;;;4.50;2.70;;;17.20;72.60;;;;;;4964246;28;95789;-59
2021/07/05 06:06:52;;;;;;;3.53;2.75;;;17.20;72.70;;;;;;4955690;28;95888;-59
2021/07/05 06:09:23;;;;;;;3.70;2.75;;;17.10;73.20;;;;;;4960897;28;95894;-58
2021/07/05 06:11:54;;;;;;;3.43;2.70;;;16.90;73.60;;;;;;4957757;28;95994;-56
2021/07/05 06:14:25;;;;;;;4.72;3.13;;;16.80;73.80;;;;;;4950175;28;102311;-55
2021/07/05 06:16:56;;;;;;;4.57;2.80;;;16.80;74.10;;;;;;4949676;28;96160;-47
2021/07/05 06:19:27;;;;;;;;;;;16.70;74.00;;;;;;4951425;28;95596;-58
2021/07/05 06:21:58;;;;;;;3.65;2.95;;;16.90;73.70;;;;;;4952301;28;95899;-52
2021/07/05 06:24:28;;;;;;;2.53;2.33;;;17.00;73.50;;;;;;4945676;28;95348;-59
2021/07/05 06:27:00;;;;;;;6.15;3.10;;;17.00;73.40;;;;;;4954796;28;96051;-48
2021/07/05 06:29:31;;;;;;;3.47;2.33;;;17.10;73.40;;;;;;4962005;28;95758;-49
2021/07/05 06:32:02;;;;;;;3.63;2.40;;;17.10;73.30;;;;;;4958142;28;96095;-59
2021/07/05 06:34:33;;;;;;;3.15;2.15;;;17.20;73.30;;;;;;4953235;28;95809;-49
2021/07/05 06:37:05;;;;;;;3.65;2.45;;;17.20;73.40;;;;;;4947440;28;96074;-47
2021/07/05 06:39:36;;;;;;;2.65;2.42;;;17.20;73.30;;;;;;4947035;28;96185;-59
2021/07/05 06:42:07;;;;;;;2.47;2.22;;;17.30;73.30;;;;;;4955165;28;96180;-59
2021/07/05 06:44:38;;;;;;;4.40;2.45;;;17.30;73.30;;;;;;4950709;28;96038;-51
2021/07/05 06:47:08;;;;;;;2.30;2.03;;;17.30;73.30;;;;;;4959826;28;95859;-51
2021/07/05 06:49:39;;;;;;;3.63;2.15;;;17.40;73.30;;;;;;4947744;28;95809;-50
2021/07/05 06:52:10;;;;;;;;;;;17.40;73.40;;;;;;4967046;28;95927;-49
2021/07/05 06:54:41;;;;;;;2.42;2.10;;;17.40;73.40;;;;;;4954341;28;95929;-48
2021/07/05 06:57:30;;;;;;;2.67;1.90;;;17.40;73.50;;;;;;4963552;28;97898;-48
2021/07/05 07:00:07;;;;;;;2.88;2.13;;;17.50;73.40;;;;;;4948473;28;96582;-49
2021/07/05 07:02:38;;;;;;;2.08;1.88;;;17.50;73.30;;;;;;4948338;28;95633;-51
2021/07/05 07:05:13;;;;;;;2.53;2.00;;;17.40;73.20;;;;;;4946702;28;96036;-49
2021/07/05 07:07:46;;;;;;;3.22;2.13;;;17.50;73.30;;;;;;4949358;28;96771;-49
2021/07/05 07:10:19;;;;;;;6.70;2.60;;;17.60;74.00;;;;;;4954330;28;95805;-52
2021/07/05 07:12:52;;;;;;;2.85;2.58;;;17.50;71.20;;;;;;4951593;28;95382;-57
2021/07/05 07:15:57;;;;;;;3.25;2.45;;;17.20;71.20;;;;;;4941532;28;95413;-56
2021/07/05 07:21:05;;;;;;;2.63;2.10;;;16.80;72.70;;;;;;4956077;28;97341;-50
2021/07/05 07:23:35;;;;;;;3.05;2.67;;;16.80;73.10;;;;;;4960181;28;95964;-50
2021/07/05 07:26:05;;;;;;;2.53;2.33;;;16.70;73.70;;;;;;4951363;28;95638;-51
2021/07/05 07:28:39;;;;;;;6.30;2.20;;;16.60;73.50;;;;;;4955243;28;96144;-49
2021/07/05 07:31:11;;;;;;;4.88;2.28;;;16.70;73.50;;;;;;4950474;28;95978;-49
2021/07/05 07:33:43;;;;;;;2.58;1.90;;;16.90;73.40;;;;;;4956872;28;95924;-49
2021/07/05 07:36:14;;;;;;;3.22;2.65;;;17.00;73.20;;;;;;4956064;28;96172;-50
2021/07/05 07:38:50;;;;;;;2.60;2.33;;;17.10;73.10;;;;;;4960237;28;95778;-52
2021/07/05 07:41:23;;;;;;;2.50;2.17;;;17.10;72.90;;;;;;4963757;28;101634;-51
2021/07/05 07:43:54;;;;;;;2.70;2.17;;;17.20;72.90;;;;;;4969905;28;95902;-51
2021/07/05 07:46:26;;;;;;;2.33;2.13;;;17.20;72.90;;;;;;4945425;28;101664;-51
2021/07/05 07:48:55;;;;;;;;;;;17.20;72.90;;;;;;4934652;28;95850;-49
2021/07/05 07:51:26;;;;;;;2.42;2.00;;;17.20;73.00;;;;;;4941420;28;95731;-50
2021/07/05 07:54:00;;;;;;;2.03;1.80;;;17.30;73.00;;;;;;4940964;28;95711;-50
2021/07/05 07:56:31;;;;;;;1.80;1.70;;;17.30;73.10;;;;;;4936505;28;95402;-49
2021/07/05 07:59:03;;;;;;;4.15;3.22;;;17.30;73.10;;;;;;4943210;28;95839;-52
2021/07/05 08:01:33;;;;;;;5.15;2.63;;;17.20;71.50;;;;;;4937099;28;96654;-48
2021/07/05 08:04:04;;;;;;;3.03;2.40;;;17.10;71.60;;;;;;4928190;28;95738;-48
2021/07/05 08:06:37;;;;;;;3.85;2.75;;;17.00;72.30;;;;;;4925984;28;95774;-47
2021/07/05 08:09:08;;;;;;;3.13;2.63;;;17.10;72.50;;;;;;4931935;28;95928;-47
2021/07/05 08:11:39;;;;;;;3.30;2.60;;;17.10;72.20;;;;;;4928204;28;96598;-47
2021/07/05 08:14:10;;;;;;;3.22;2.58;;;17.10;72.20;;;;;;4927780;28;96150;-48
2021/07/05 08:16:40;;;;;;;3.10;2.80;;;17.10;72.20;;;;;;4933391;28;95739;-47
2021/07/05 08:19:12;;;;;;;4.25;2.67;;;17.10;72.10;;;;;;4948299;28;95840;-48
2021/07/05 08:21:43;;;;;;;2.72;2.30;;;17.10;72.10;;;;;;4951031;28;95421;-47
2021/07/05 08:24:15;;;;;;;3.22;2.72;;;17.10;72.00;;;;;;4948335;28;96009;-48
2021/07/05 08:26:47;;;;;;;2.83;2.42;;;17.10;72.10;;;;;;4947981;28;95313;-47
2021/07/05 08:29:18;;;;;;;2.67;2.47;;;17.00;72.00;;;;;;4952120;28;95912;-58
2021/07/05 08:31:50;;;;;;;4.32;2.70;;;17.00;72.00;;;;;;4946105;28;96720;-49
2021/07/05 08:34:22;;;;;;;3.42;2.63;;;17.00;72.20;;;;;;4949499;28;96131;-48
2021/07/05 08:36:53;;;;;;;2.50;2.20;;;17.10;72.30;;;;;;4945200;28;95657;-50
2021/07/05 08:39:24;;;;;;;3.50;2.65;;;17.10;72.00;;;;;;4949967;28;96456;-49
2021/07/05 08:41:55;;;;;;;2.75;2.38;;;17.10;71.80;;;;;;4949108;28;95950;-52
2021/07/05 08:44:28;;;;;;;6.55;2.72;;;17.10;72.00;;;;;;4957480;28;95913;-49
2021/07/05 08:46:59;;;;;;;2.42;2.17;;;17.10;72.00;;;;;;4946905;28;100155;-52
2021/07/05 08:49:29;;;;;;;2.90;2.58;;;17.10;72.00;;;;;;4953426;28;95846;-49
2021/07/05 08:52:00;;;;;;;2.60;2.38;;;17.10;72.00;;;;;;4951005;28;95957;-59
2021/07/05 08:54:31;;;;;;;2.70;2.28;;;17.00;72.20;;;;;;4952167;28;97244;-59
2021/07/05 08:57:03;;;;;;;2.60;2.40;;;17.00;72.10;;;;;;4963330;28;95762;-60
2021/07/05 08:59:37;;;;;;;4.70;2.80;;;17.00;72.10;;;;;;4955702;28;96219;-57
2021/07/05 09:02:10;;;;;;;3.67;2.70;;;17.00;72.20;;;;;;4955860;28;95539;-59
2021/07/05 09:04:42;;;;;;;4.25;2.97;;;17.00;72.20;;;;;;4950508;28;96797;-49
2021/07/05 09:07:12;;;;;;;4.95;3.33;;;16.90;72.20;;;;;;4956473;28;95903;-59
2021/07/05 09:10:08;;;;;;;4.45;3.50;;;16.90;72.20;;;;;;4958035;28;95912;-48
2021/07/05 09:12:39;;;;;;;4.57;3.67;;;16.90;72.20;;;;;;4948708;28;95776;-60
2021/07/05 09:15:13;;;;;;;6.60;4.07;;;16.90;72.80;;;;;;4947593;28;96503;-58
2021/07/05 09:17:44;;;;;;;5.95;3.83;;;16.90;72.20;;;;;;4949081;28;95704;-57
2021/07/05 09:20:16;;;;;;;4.55;3.95;;;16.90;72.20;;;;;;4956719;28;95885;-60
2021/07/05 09:23:10;;;;;;;5.13;4.13;;;16.90;72.20;;;;;;4960223;28;96209;-59
2021/07/05 09:25:44;;;;;;;6.82;4.78;;;16.80;72.30;;;;;;4951661;28;95824;-57
2021/07/05 09:28:17;;;;;;;8.32;4.75;;;16.80;72.40;;;;;;4949020;28;96207;-58
2021/07/05 09:30:59;;;;;;;6.28;4.50;;;16.80;72.40;;;;;;4947027;28;96480;-58
2021/07/05 09:33:32;;;;;;;8.02;4.82;;;16.90;72.40;;;;;;4953478;28;95553;-59
2021/07/05 09:36:06;;;;;;;6.68;4.72;;;16.80;72.30;;;;;;4959182;28;95508;-59
2021/07/05 09:38:44;;;;;;;7.88;5.07;;;16.80;72.30;;;;;;4964598;28;95741;-59
2021/07/05 09:41:26;;;;;;;6.68;4.50;;;16.80;72.20;;;;;;4958838;28;95911;-58
2021/07/05 09:44:04;;;;;;;5.70;4.22;;;16.80;72.30;;;;;;4962911;28;95866;-59
2021/07/05 09:46:41;;;;;;;7.68;4.32;;;16.80;72.30;;;;;;4956707;28;102242;-59
2021/07/05 09:49:25;;;;;;;6.65;4.55;;;16.80;72.30;;;;;;4963795;28;95298;-48
2021/07/05 09:52:07;;;;;;;5.93;4.55;;;16.80;72.30;;;;;;4962475;28;96530;-60
2021/07/05 09:54:41;;;;;;;5.57;3.90;;;16.80;72.20;;;;;;4964979;28;95767;-59
2021/07/05 09:57:34;;;;;;;7.85;4.40;;;16.80;72.30;;;;;;4959860;28;95852;-60
2021/07/05 10:00:09;;;;;;;6.22;4.00;;;16.80;72.20;;;;;;4959878;28;95893;-49
2021/07/05 10:03:04;;;;;;;5.20;3.83;;;16.80;72.30;;;;;;4956419;28;103933;-60
2021/07/05 10:05:47;;;;;;;4.32;3.67;;;16.80;72.20;;;;;;4961225;28;95944;-58
2021/07/05 10:08:19;;;;;;;4.85;3.75;;;16.70;72.20;;;;;;4966527;28;95801;-59
2021/07/05 10:11:04;;;;;;;;;;;16.60;72.60;;;;;;4966841;28;95484;-48
2021/07/05 10:13:34;;;;;;;4.50;4.00;;;16.40;72.80;;;;;;4959120;28;95893;-58
2021/07/05 10:16:13;;;;;;;4.80;3.92;;;16.40;73.20;;;;;;4955171;28;96298;-59
2021/07/05 10:18:45;;;;;;;4.30;3.30;;;16.30;73.30;;;;;;4980608;28;95331;-59
2021/07/05 10:21:18;;;;;;;5.00;3.97;;;16.30;73.40;;;;;;4967086;28;95587;-59
2021/07/05 10:23:48;;;;;;;5.55;3.88;;;16.30;73.50;;;;;;4963531;28;95840;-49
2021/07/05 10:26:21;;;;;;;5.18;3.40;;;16.20;73.60;;;;;;4963831;28;95740;-57
2021/07/05 10:28:51;;;;;;;5.78;3.88;;;16.20;73.60;;;;;;4962775;28;101466;-58
2021/07/05 10:31:26;;;;;;;4.18;3.65;;;16.10;73.50;;;;;;4950274;28;95615;-57
2021/07/05 10:34:00;;;;;;;5.90;3.47;;;16.20;73.60;;;;;;4953835;28;96002;-59
2021/07/05 10:36:35;;;;;;;5.43;3.42;;;16.10;73.60;;;;;;4964586;28;96693;-59
2021/07/05 10:39:08;;;;;;;6.22;3.92;;;16.10;73.70;;;;;;4958773;28;95801;-59
2021/07/05 10:41:41;;;;;;;5.22;3.28;;;16.10;73.70;;;;;;4952636;28;95693;-56
2021/07/05 10:44:19;;;;;;;5.28;3.97;;;16.00;73.60;;;;;;4952524;28;99688;-48
2021/07/05 10:46:54;;;;;;;4.72;3.70;;;16.00;73.60;;;;;;4954414;28;95773;-58
2021/07/05 10:49:33;;;;;;;3.60;3.30;;;16.00;74.30;;;;;;4950811;28;95869;-60
2021/07/05 10:52:12;;;;;;;4.80;3.50;;;16.10;73.70;;;;;;4949063;28;96177;-60
2021/07/05 10:54:51;;;;;;;4.85;3.35;;;16.00;73.60;;;;;;4960173;28;96876;-58
2021/07/05 10:57:41;;;;;;;4.47;3.50;;;16.00;73.60;;;;;;4980649;28;96142;-60
2021/07/05 11:00:19;;;;;;;7.33;4.07;;;15.90;73.60;;;;;;4959314;28;95853;-59
2021/07/05 11:02:50;;;;;;;4.60;3.67;;;16.00;73.70;;;;;;4963355;28;95401;-58
2021/07/05 11:05:45;;;;;;;4.85;3.50;;;15.90;73.60;;;;;;4966049;28;95916;-58
2021/07/05 11:08:39;;;;;;;5.50;4.35;;;15.90;73.70;;;;;;4956625;28;95340;-59
2021/07/05 11:11:29;;;;;;;;;;;15.90;73.80;;;;;;4951608;28;95868;-59
2021/07/05 11:14:09;;;;;;;4.43;3.58;;;15.80;73.70;;;;;;4950311;28;97902;-57
2021/07/05 11:17:01;;;;;;;4.75;3.72;;;15.80;73.80;;;;;;4956187;28;95977;-59
2021/07/05 11:19:46;;;;;;;4.63;3.53;;;15.80;73.80;;;;;;4953239;28;95867;-49
2021/07/05 11:22:33;;;;;;;4.85;3.50;;;15.80;73.80;;;;;;4947653;28;96003;-59
2021/07/05 11:25:12;;;;;;;5.30;3.85;;;15.80;73.90;;;;;;4946875;28;96226;-58
2021/07/05 11:27:46;;;;;;;4.10;3.33;;;15.80;74.00;;;;;;4951449;28;95927;-58
2021/07/05 11:30:26;;;;;;;5.85;3.78;;;15.70;74.00;;;;;;4951076;28;95885;-59
2021/07/05 11:33:13;;;;;;;3.55;3.22;;;15.70;74.00;;;;;;4967457;28;96964;-48
2021/07/05 11:35:49;;;;;;;4.22;3.83;;;15.70;73.90;;;;;;4959565;28;95665;-60
2021/07/05 11:38:25;;;;;;;4.18;3.20;;;15.70;74.10;;;;;;4950060;28;96166;-56
2021/07/05 11:41:03;;;;;;;4.25;3.05;;;15.60;74.10;;;;;;4949632;28;95490;-59
2021/07/05 11:43:45;;;;;;;4.60;3.55;;;15.60;74.10;;;;;;4963212;28;96052;-48
2021/07/05 11:46:18;;;;;;;6.40;3.60;;;15.60;74.10;;;;;;4957128;28;95818;-59
2021/07/05 11:48:56;;;;;;;4.40;3.08;;;15.60;74.10;;;;;;4964957;28;95891;-60
2021/07/05 11:51:31;;;;;;;3.55;3.17;;;15.60;74.10;;;;;;4956337;28;95948;-58
2021/07/05 11:54:05;;;;;;;4.38;3.20;;;15.60;74.10;;;;;;4956249;28;95635;-60
2021/07/05 11:56:43;;;;;;;3.35;3.05;;;15.50;74.10;;;;;;4960596;28;96507;-57
2021/07/05 11:59:21;;;;;;;3.70;2.95;;;15.50;74.20;;;;;;4954392;28;95946;-58
2021/07/05 12:02:00;;;;;;;4.13;2.70;;;15.50;74.10;;;;;;4936180;28;95571;-58
2021/07/05 12:04:42;;;;;;;5.22;3.20;;;15.50;74.30;;;;;;4933593;28;95914;-59
2021/07/05 12:07:17;;;;;;;3.42;3.00;;;15.50;74.20;;;;;;4935917;28;95476;-59
2021/07/05 12:09:52;;;;;;;3.72;3.22;;;15.40;74.10;;;;;;4942585;28;95875;-58
2021/07/05 12:12:25;;;;;;;4.85;3.35;;;15.40;74.10;;;;;;4930462;28;100022;-49
2021/07/05 12:14:57;;;;;;;3.30;2.90;;;15.40;74.20;;;;;;4930808;28;101086;-59
2021/07/05 12:17:28;;;;;;;3.25;2.78;;;15.40;74.20;;;;;;4945056;28;96163;-58
2021/07/05 12:19:59;;;;;;;;;;;15.40;74.30;;;;;;4959424;28;95723;-47
2021/07/05 12:22:31;;;;;;;5.82;3.10;;;15.30;74.30;;;;;;4957514;28;95956;-48
2021/07/05 12:25:01;;;;;;;3.70;3.00;;;15.30;74.30;;;;;;4961283;28;95892;-58
2021/07/05 12:27:35;;;;;;;4.72;3.63;;;15.30;74.30;;;;;;4953058;28;95223;-49
2021/07/05 12:30:07;;;;;;;3.83;3.00;;;15.30;74.30;;;;;;4951079;28;95285;-59
2021/07/05 12:32:39;;;;;;;4.03;2.90;;;15.30;74.40;;;;;;4948909;28;95859;-58
2021/07/05 12:35:15;;;;;;;5.07;3.42;;;15.30;74.30;;;;;;4963551;28;95733;-49
2021/07/05 12:37:59;;;;;;;4.72;2.95;;;15.30;74.40;;;;;;4956643;28;95379;-59
2021/07/05 12:40:33;;;;;;;5.20;3.47;;;15.30;74.40;;;;;;4953485;28;95889;-58
2021/07/05 12:43:12;;;;;;;5.30;4.22;;;15.30;74.40;;;;;;4953644;28;97555;-59
2021/07/05 12:45:53;;;;;;;5.97;3.95;;;15.20;74.40;;;;;;4962506;28;95984;-59
2021/07/05 12:48:28;;;;;;;4.60;3.88;;;15.20;74.30;;;;;;4954815;28;96015;-57
2021/07/05 12:51:06;;;;;;;5.72;4.32;;;15.20;74.40;;;;;;4963789;28;95938;-58
2021/07/05 12:53:42;;;;;;;5.43;3.90;;;15.20;74.40;;;;;;4965454;28;95505;-57
2021/07/05 12:56:26;;;;;;;6.50;4.03;;;15.20;74.40;;;;;;4959011;28;95791;-59
2021/07/05 12:58:58;;;;;;;5.00;3.90;;;15.20;74.30;;;;;;4951756;28;95854;-58
2021/07/05 13:01:34;;;;;;;5.25;4.03;;;15.20;74.40;;;;;;4953501;28;95868;-55
2021/07/05 13:04:14;;;;;;;5.45;4.13;;;15.10;74.30;;;;;;4956854;28;95419;-57
2021/07/05 13:07:08;;;;;;;4.15;3.70;;;15.10;74.40;;;;;;4959347;28;95655;-58
2021/07/05 13:09:40;;;;;;;6.22;4.82;;;15.10;74.40;;;;;;4964127;28;95797;-58
2021/07/05 13:12:16;;;;;;;;;;;15.00;74.30;;;;;;4963048;28;96004;-59
2021/07/05 13:14:47;;;;;;;6.50;4.45;;;15.00;74.30;;;;;;4957351;28;95865;-47
2021/07/05 13:17:20;;;;;;;5.95;4.55;;;15.00;74.40;;;;;;4960492;28;95647;-58
2021/07/05 13:20:07;;;;;;;4.80;3.63;;;15.00;74.40;;;;;;4959086;28;95365;-59
2021/07/05 13:22:54;;;;;;;4.70;4.25;;;15.00;74.40;;;;;;4949559;28;96093;-58
2021/07/05 13:25:25;;;;;;;4.40;4.00;;;14.90;74.40;;;;;;4960545;28;95852;-58